sensor_id;sensor_type;location;lat;lon;timestamp;P1;durP1;ratioP1;P2;durP2;ratioP2
45806;SDS011;31507;51.494;7.518;2022-11-15T00:00:32;10.55;;;8.20;;
45806;SDS011;31507;51.494;7.518;2022-11-15T00:02:58;13.60;;;7.80;;
45806;SDS011;31507;51.494;7.518;2022-11-15T00:05:24;9.45;;;7.57;;
45806;SDS011;31507;51.494;7.518;2022-11-15T00:07:49;12.55;;;8.00;;
45806;SDS011;31507;51.494;7.518;2022-11-15T00:10:15;14.40;;;7.70;;
45806;SDS011;31507;51.494;7.518;2022-11-15T00:12:41;11.70;;;7.82;;
45806;SDS011;31507;51.494;7.518;2022-11-15T00:15:06;12.05;;;7.32;;
45806;SDS011;31507;51.494;7.518;2022-11-15T00:17:32;12.82;;;7.40;;
45806;SDS011;31507;51.494;7.518;2022-11-15T00:19:58;12.45;;;6.82;;
45806;SDS011;31507;51.494;7.518;2022-11-15T00:22:23;12.00;;;7.90;;
45806;SDS011;31507;51.494;7.518;2022-11-15T00:24:49;13.18;;;7.28;;
45806;SDS011;31507;51.494;7.518;2022-11-15T00:27:15;10.65;;;7.55;;
45806;SDS011;31507;51.494;7.518;2022-11-15T00:29:40;8.43;;;6.80;;
45806;SDS011;31507;51.494;7.518;2022-11-15T00:32:11;12.52;;;7.25;;
45806;SDS011;31507;51.494;7.518;2022-11-15T00:34:37;16.23;;;7.20;;
45806;SDS011;31507;51.494;7.518;2022-11-15T00:37:02;8.88;;;7.43;;
45806;SDS011;31507;51.494;7.518;2022-11-15T00:39:28;12.82;;;6.63;;
45806;SDS011;31507;51.494;7.518;2022-11-15T00:41:54;12.27;;;6.85;;
45806;SDS011;31507;51.494;7.518;2022-11-15T00:44:19;12.32;;;6.32;;
45806;SDS011;31507;51.494;7.518;2022-11-15T00:46:45;12.52;;;6.85;;
45806;SDS011;31507;51.494;7.518;2022-11-15T00:49:11;14.05;;;6.65;;
45806;SDS011;31507;51.494;7.518;2022-11-15T00:51:37;10.90;;;6.60;;
45806;SDS011;31507;51.494;7.518;2022-11-15T00:54:02;11.82;;;7.13;;
45806;SDS011;31507;51.494;7.518;2022-11-15T00:56:28;10.18;;;6.70;;
45806;SDS011;31507;51.494;7.518;2022-11-15T00:58:53;10.25;;;6.55;;
45806;SDS011;31507;51.494;7.518;2022-11-15T01:01:19;11.68;;;6.57;;
45806;SDS011;31507;51.494;7.518;2022-11-15T01:03:45;9.82;;;6.60;;
45806;SDS011;31507;51.494;7.518;2022-11-15T01:06:10;9.23;;;6.03;;
45806;SDS011;31507;51.494;7.518;2022-11-15T01:08:37;9.43;;;5.85;;
45806;SDS011;31507;51.494;7.518;2022-11-15T01:11:05;10.38;;;6.38;;
45806;SDS011;31507;51.494;7.518;2022-11-15T01:13:33;11.30;;;6.70;;
45806;SDS011;31507;51.494;7.518;2022-11-15T01:16:04;11.93;;;5.68;;
45806;SDS011;31507;51.494;7.518;2022-11-15T01:18:31;12.82;;;6.68;;
45806;SDS011;31507;51.494;7.518;2022-11-15T01:20:57;13.38;;;7.07;;
45806;SDS011;31507;51.494;7.518;2022-11-15T01:23:23;13.98;;;6.63;;
45806;SDS011;31507;51.494;7.518;2022-11-15T01:25:48;10.93;;;6.50;;
45806;SDS011;31507;51.494;7.518;2022-11-15T01:28:14;9.80;;;6.20;;
45806;SDS011;31507;51.494;7.518;2022-11-15T01:30:39;10.23;;;7.03;;
45806;SDS011;31507;51.494;7.518;2022-11-15T01:33:05;11.38;;;7.22;;
45806;SDS011;31507;51.494;7.518;2022-11-15T01:35:31;11.57;;;6.60;;
45806;SDS011;31507;51.494;7.518;2022-11-15T01:37:56;12.82;;;6.45;;
45806;SDS011;31507;51.494;7.518;2022-11-15T01:40:22;12.82;;;5.75;;
45806;SDS011;31507;51.494;7.518;2022-11-15T01:42:48;9.35;;;6.53;;
45806;SDS011;31507;51.494;7.518;2022-11-15T01:45:14;11.40;;;6.10;;
45806;SDS011;31507;51.494;7.518;2022-11-15T01:47:41;10.10;;;6.10;;
45806;SDS011;31507;51.494;7.518;2022-11-15T01:50:14;11.43;;;6.25;;
45806;SDS011;31507;51.494;7.518;2022-11-15T01:52:43;8.65;;;5.68;;
45806;SDS011;31507;51.494;7.518;2022-11-15T01:55:11;9.88;;;6.15;;
45806;SDS011;31507;51.494;7.518;2022-11-15T01:57:53;8.77;;;6.20;;
45806;SDS011;31507;51.494;7.518;2022-11-15T02:00:22;9.02;;;6.47;;
45806;SDS011;31507;51.494;7.518;2022-11-15T02:02:48;11.20;;;6.95;;
45806;SDS011;31507;51.494;7.518;2022-11-15T02:05:14;9.38;;;6.18;;
45806;SDS011;31507;51.494;7.518;2022-11-15T02:07:40;8.60;;;6.75;;
45806;SDS011;31507;51.494;7.518;2022-11-15T02:10:09;11.75;;;7.00;;
45806;SDS011;31507;51.494;7.518;2022-11-15T02:12:37;9.80;;;6.47;;
45806;SDS011;31507;51.494;7.518;2022-11-15T02:15:04;9.18;;;6.57;;
45806;SDS011;31507;51.494;7.518;2022-11-15T02:17:33;12.70;;;6.80;;
45806;SDS011;31507;51.494;7.518;2022-11-15T02:26:41;14.93;;;7.60;;
45806;SDS011;31507;51.494;7.518;2022-11-15T02:29:04;9.95;;;6.50;;
45806;SDS011;31507;51.494;7.518;2022-11-15T02:39:51;11.80;;;6.30;;
45806;SDS011;31507;51.494;7.518;2022-11-15T02:42:39;11.07;;;6.68;;
45806;SDS011;31507;51.494;7.518;2022-11-15T02:45:27;12.05;;;7.07;;
45806;SDS011;31507;51.494;7.518;2022-11-15T02:47:56;12.02;;;7.30;;
45806;SDS011;31507;51.494;7.518;2022-11-15T02:50:25;11.32;;;7.20;;
45806;SDS011;31507;51.494;7.518;2022-11-15T02:52:53;13.27;;;7.32;;
45806;SDS011;31507;51.494;7.518;2022-11-15T02:55:27;11.35;;;7.07;;
45806;SDS011;31507;51.494;7.518;2022-11-15T03:08:54;14.27;;;8.25;;
45806;SDS011;31507;51.494;7.518;2022-11-15T03:11:32;10.93;;;7.68;;
45806;SDS011;31507;51.494;7.518;2022-11-15T03:14:05;10.60;;;7.50;;
45806;SDS011;31507;51.494;7.518;2022-11-15T03:16:37;12.63;;;8.27;;
45806;SDS011;31507;51.494;7.518;2022-11-15T03:19:11;12.05;;;7.82;;
45806;SDS011;31507;51.494;7.518;2022-11-15T03:21:49;13.52;;;8.40;;
45806;SDS011;31507;51.494;7.518;2022-11-15T03:24:17;11.85;;;7.55;;
45806;SDS011;31507;51.494;7.518;2022-11-15T03:26:46;10.80;;;7.38;;
45806;SDS011;31507;51.494;7.518;2022-11-15T03:29:16;11.95;;;8.23;;
45806;SDS011;31507;51.494;7.518;2022-11-15T03:31:45;11.13;;;7.65;;
45806;SDS011;31507;51.494;7.518;2022-11-15T03:34:36;16.58;;;7.35;;
45806;SDS011;31507;51.494;7.518;2022-11-15T03:37:12;10.57;;;7.20;;
45806;SDS011;31507;51.494;7.518;2022-11-15T03:39:40;12.70;;;7.75;;
45806;SDS011;31507;51.494;7.518;2022-11-15T03:42:13;8.93;;;6.82;;
45806;SDS011;31507;51.494;7.518;2022-11-15T03:44:47;10.50;;;6.35;;
45806;SDS011;31507;51.494;7.518;2022-11-15T03:47:32;11.32;;;6.78;;
45806;SDS011;31507;51.494;7.518;2022-11-15T03:50:03;8.98;;;5.78;;
45806;SDS011;31507;51.494;7.518;2022-11-15T03:52:33;8.68;;;6.13;;
45806;SDS011;31507;51.494;7.518;2022-11-15T03:55:00;11.40;;;6.20;;
45806;SDS011;31507;51.494;7.518;2022-11-15T03:57:28;9.30;;;5.32;;
45806;SDS011;31507;51.494;7.518;2022-11-15T03:59:54;8.45;;;5.72;;
45806;SDS011;31507;51.494;7.518;2022-11-15T04:02:19;8.98;;;5.75;;
45806;SDS011;31507;51.494;7.518;2022-11-15T04:04:45;10.57;;;5.78;;
45806;SDS011;31507;51.494;7.518;2022-11-15T04:07:11;7.32;;;5.43;;
45806;SDS011;31507;51.494;7.518;2022-11-15T04:09:36;8.00;;;5.82;;
45806;SDS011;31507;51.494;7.518;2022-11-15T04:12:21;10.57;;;6.22;;
45806;SDS011;31507;51.494;7.518;2022-11-15T04:14:57;8.27;;;5.18;;
45806;SDS011;31507;51.494;7.518;2022-11-15T04:17:41;9.50;;;5.05;;
45806;SDS011;31507;51.494;7.518;2022-11-15T04:20:19;7.32;;;5.22;;
45806;SDS011;31507;51.494;7.518;2022-11-15T04:23:17;7.20;;;5.13;;
45806;SDS011;31507;51.494;7.518;2022-11-15T04:26:14;12.68;;;5.00;;
45806;SDS011;31507;51.494;7.518;2022-11-15T04:28:45;9.70;;;5.38;;
45806;SDS011;31507;51.494;7.518;2022-11-15T04:33:55;6.07;;;5.38;;
45806;SDS011;31507;51.494;7.518;2022-11-15T04:36:20;8.75;;;5.53;;
45806;SDS011;31507;51.494;7.518;2022-11-15T04:39:05;7.43;;;5.78;;
45806;SDS011;31507;51.494;7.518;2022-11-15T04:41:32;8.63;;;5.68;;
45806;SDS011;31507;51.494;7.518;2022-11-15T04:43:57;8.32;;;5.47;;
45806;SDS011;31507;51.494;7.518;2022-11-15T04:46:23;10.52;;;5.53;;
45806;SDS011;31507;51.494;7.518;2022-11-15T04:48:49;6.40;;;5.07;;
45806;SDS011;31507;51.494;7.518;2022-11-15T04:51:16;8.00;;;5.43;;
45806;SDS011;31507;51.494;7.518;2022-11-15T04:53:41;6.35;;;5.38;;
45806;SDS011;31507;51.494;7.518;2022-11-15T04:56:07;7.25;;;5.53;;
45806;SDS011;31507;51.494;7.518;2022-11-15T04:58:33;7.63;;;5.15;;
45806;SDS011;31507;51.494;7.518;2022-11-15T05:01:05;5.47;;;4.93;;
45806;SDS011;31507;51.494;7.518;2022-11-15T05:03:35;6.63;;;5.38;;
45806;SDS011;31507;51.494;7.518;2022-11-15T05:06:20;7.72;;;5.07;;
45806;SDS011;31507;51.494;7.518;2022-11-15T05:08:46;11.48;;;5.75;;
45806;SDS011;31507;51.494;7.518;2022-11-15T05:11:11;6.32;;;5.13;;
45806;SDS011;31507;51.494;7.518;2022-11-15T05:13:37;10.07;;;5.15;;
45806;SDS011;31507;51.494;7.518;2022-11-15T05:16:02;7.43;;;5.03;;
45806;SDS011;31507;51.494;7.518;2022-11-15T05:18:28;7.13;;;5.00;;
45806;SDS011;31507;51.494;7.518;2022-11-15T05:20:54;6.55;;;5.00;;
45806;SDS011;31507;51.494;7.518;2022-11-15T05:23:20;6.80;;;5.13;;
45806;SDS011;31507;51.494;7.518;2022-11-15T05:25:45;6.53;;;4.97;;
45806;SDS011;31507;51.494;7.518;2022-11-15T05:28:11;7.50;;;5.20;;
45806;SDS011;31507;51.494;7.518;2022-11-15T05:30:37;5.30;;;4.68;;
45806;SDS011;31507;51.494;7.518;2022-11-15T05:33:02;6.32;;;5.07;;
45806;SDS011;31507;51.494;7.518;2022-11-15T05:35:42;7.18;;;5.28;;
45806;SDS011;31507;51.494;7.518;2022-11-15T05:38:15;7.93;;;5.50;;
45806;SDS011;31507;51.494;7.518;2022-11-15T05:40:41;6.20;;;5.35;;
45806;SDS011;31507;51.494;7.518;2022-11-15T05:43:06;6.75;;;5.05;;
45806;SDS011;31507;51.494;7.518;2022-11-15T05:45:32;8.20;;;5.13;;
45806;SDS011;31507;51.494;7.518;2022-11-15T05:47:59;6.75;;;4.93;;
45806;SDS011;31507;51.494;7.518;2022-11-15T05:50:29;8.18;;;5.03;;
45806;SDS011;31507;51.494;7.518;2022-11-15T05:52:55;8.80;;;5.60;;
45806;SDS011;31507;51.494;7.518;2022-11-15T05:55:21;5.75;;;5.07;;
45806;SDS011;31507;51.494;7.518;2022-11-15T05:57:47;8.25;;;5.18;;
45806;SDS011;31507;51.494;7.518;2022-11-15T06:00:13;6.13;;;5.15;;
45806;SDS011;31507;51.494;7.518;2022-11-15T06:02:39;5.32;;;4.78;;
45806;SDS011;31507;51.494;7.518;2022-11-15T06:05:04;7.32;;;5.40;;
45806;SDS011;31507;51.494;7.518;2022-11-15T06:07:30;6.63;;;5.13;;
45806;SDS011;31507;51.494;7.518;2022-11-15T06:09:56;6.30;;;4.90;;
45806;SDS011;31507;51.494;7.518;2022-11-15T06:12:21;8.10;;;5.35;;
45806;SDS011;31507;51.494;7.518;2022-11-15T06:14:47;6.65;;;4.72;;
45806;SDS011;31507;51.494;7.518;2022-11-15T06:17:13;7.07;;;4.60;;
45806;SDS011;31507;51.494;7.518;2022-11-15T06:19:38;4.50;;;4.05;;
45806;SDS011;31507;51.494;7.518;2022-11-15T06:22:04;6.53;;;4.93;;
45806;SDS011;31507;51.494;7.518;2022-11-15T06:24:30;5.05;;;4.28;;
45806;SDS011;31507;51.494;7.518;2022-11-15T06:26:55;6.25;;;4.60;;
45806;SDS011;31507;51.494;7.518;2022-11-15T06:29:22;7.75;;;4.72;;
45806;SDS011;31507;51.494;7.518;2022-11-15T06:31:48;5.20;;;4.60;;
45806;SDS011;31507;51.494;7.518;2022-11-15T06:34:13;6.88;;;4.13;;
45806;SDS011;31507;51.494;7.518;2022-11-15T06:36:39;6.43;;;4.00;;
45806;SDS011;31507;51.494;7.518;2022-11-15T06:39:05;7.18;;;4.60;;
45806;SDS011;31507;51.494;7.518;2022-11-15T06:41:33;6.10;;;4.03;;
45806;SDS011;31507;51.494;7.518;2022-11-15T06:44:00;4.10;;;3.70;;
45806;SDS011;31507;51.494;7.518;2022-11-15T06:46:25;7.55;;;3.95;;
45806;SDS011;31507;51.494;7.518;2022-11-15T06:48:51;4.43;;;3.63;;
45806;SDS011;31507;51.494;7.518;2022-11-15T06:51:17;5.03;;;3.63;;
45806;SDS011;31507;51.494;7.518;2022-11-15T06:53:43;6.82;;;3.15;;
45806;SDS011;31507;51.494;7.518;2022-11-15T06:56:09;5.55;;;3.38;;
45806;SDS011;31507;51.494;7.518;2022-11-15T06:58:35;5.47;;;3.47;;
45806;SDS011;31507;51.494;7.518;2022-11-15T07:01:03;3.30;;;2.80;;
45806;SDS011;31507;51.494;7.518;2022-11-15T07:03:34;6.72;;;2.92;;
45806;SDS011;31507;51.494;7.518;2022-11-15T07:06:01;5.07;;;2.70;;
45806;SDS011;31507;51.494;7.518;2022-11-15T07:08:28;3.25;;;2.95;;
45806;SDS011;31507;51.494;7.518;2022-11-15T07:10:54;4.30;;;2.88;;
45806;SDS011;31507;51.494;7.518;2022-11-15T07:13:26;4.80;;;2.80;;
45806;SDS011;31507;51.494;7.518;2022-11-15T07:15:52;4.60;;;2.63;;
45806;SDS011;31507;51.494;7.518;2022-11-15T07:18:17;3.80;;;2.75;;
45806;SDS011;31507;51.494;7.518;2022-11-15T07:20:43;3.25;;;2.50;;
45806;SDS011;31507;51.494;7.518;2022-11-15T07:23:09;2.80;;;2.40;;
45806;SDS011;31507;51.494;7.518;2022-11-15T07:25:35;2.83;;;2.05;;
45806;SDS011;31507;51.494;7.518;2022-11-15T07:28:00;2.92;;;2.20;;
45806;SDS011;31507;51.494;7.518;2022-11-15T07:30:26;3.20;;;2.03;;
45806;SDS011;31507;51.494;7.518;2022-11-15T07:32:53;3.42;;;2.25;;
45806;SDS011;31507;51.494;7.518;2022-11-15T07:35:21;2.20;;;2.00;;
45806;SDS011;31507;51.494;7.518;2022-11-15T07:37:58;5.35;;;2.30;;
45806;SDS011;31507;51.494;7.518;2022-11-15T07:40:26;2.08;;;1.90;;
45806;SDS011;31507;51.494;7.518;2022-11-15T07:42:52;3.10;;;1.98;;
45806;SDS011;31507;51.494;7.518;2022-11-15T07:45:23;2.38;;;1.90;;
45806;SDS011;31507;51.494;7.518;2022-11-15T07:47:53;3.55;;;1.85;;
45806;SDS011;31507;51.494;7.518;2022-11-15T07:50:18;2.05;;;1.58;;
45806;SDS011;31507;51.494;7.518;2022-11-15T07:52:44;2.40;;;1.45;;
45806;SDS011;31507;51.494;7.518;2022-11-15T07:55:10;2.13;;;1.88;;
45806;SDS011;31507;51.494;7.518;2022-11-15T07:57:36;4.28;;;2.10;;
45806;SDS011;31507;51.494;7.518;2022-11-15T08:00:03;2.70;;;1.85;;
45806;SDS011;31507;51.494;7.518;2022-11-15T08:02:30;4.40;;;1.90;;
45806;SDS011;31507;51.494;7.518;2022-11-15T08:04:55;3.25;;;2.30;;
45806;SDS011;31507;51.494;7.518;2022-11-15T08:07:21;2.63;;;1.88;;
45806;SDS011;31507;51.494;7.518;2022-11-15T08:09:47;7.47;;;1.80;;
45806;SDS011;31507;51.494;7.518;2022-11-15T08:12:12;2.80;;;1.60;;
45806;SDS011;31507;51.494;7.518;2022-11-15T08:14:39;4.03;;;1.85;;
45806;SDS011;31507;51.494;7.518;2022-11-15T08:17:05;3.78;;;1.80;;
45806;SDS011;31507;51.494;7.518;2022-11-15T08:19:30;4.18;;;2.17;;
45806;SDS011;31507;51.494;7.518;2022-11-15T08:21:56;3.05;;;1.77;;
45806;SDS011;31507;51.494;7.518;2022-11-15T08:24:22;4.18;;;1.80;;
45806;SDS011;31507;51.494;7.518;2022-11-15T08:26:47;3.30;;;2.08;;
45806;SDS011;31507;51.494;7.518;2022-11-15T08:29:13;3.15;;;1.77;;
45806;SDS011;31507;51.494;7.518;2022-11-15T08:31:38;3.17;;;1.55;;
45806;SDS011;31507;51.494;7.518;2022-11-15T08:34:04;3.72;;;1.65;;
45806;SDS011;31507;51.494;7.518;2022-11-15T08:36:31;2.25;;;1.75;;
45806;SDS011;31507;51.494;7.518;2022-11-15T08:38:57;2.97;;;1.40;;
45806;SDS011;31507;51.494;7.518;2022-11-15T08:41:33;5.53;;;1.80;;
45806;SDS011;31507;51.494;7.518;2022-11-15T08:44:01;2.20;;;1.58;;
45806;SDS011;31507;51.494;7.518;2022-11-15T08:46:27;4.35;;;1.23;;
45806;SDS011;31507;51.494;7.518;2022-11-15T08:48:53;4.88;;;1.50;;
45806;SDS011;31507;51.494;7.518;2022-11-15T08:51:19;1.60;;;1.02;;
45806;SDS011;31507;51.494;7.518;2022-11-15T08:53:44;4.55;;;1.55;;
45806;SDS011;31507;51.494;7.518;2022-11-15T08:56:12;2.42;;;1.58;;
45806;SDS011;31507;51.494;7.518;2022-11-15T08:58:39;5.57;;;1.42;;
45806;SDS011;31507;51.494;7.518;2022-11-15T09:01:05;1.90;;;1.27;;
45806;SDS011;31507;51.494;7.518;2022-11-15T09:03:31;3.38;;;1.30;;
45806;SDS011;31507;51.494;7.518;2022-11-15T09:05:57;2.78;;;1.55;;
45806;SDS011;31507;51.494;7.518;2022-11-15T09:08:25;2.00;;;1.40;;
45806;SDS011;31507;51.494;7.518;2022-11-15T09:10:53;3.70;;;1.30;;
45806;SDS011;31507;51.494;7.518;2022-11-15T09:13:19;2.03;;;1.30;;
45806;SDS011;31507;51.494;7.518;2022-11-15T09:15:45;22.60;;;2.72;;
45806;SDS011;31507;51.494;7.518;2022-11-15T09:18:13;42.10;;;4.13;;
45806;SDS011;31507;51.494;7.518;2022-11-15T09:20:39;2.92;;;1.25;;
45806;SDS011;31507;51.494;7.518;2022-11-15T09:23:05;2.75;;;1.10;;
45806;SDS011;31507;51.494;7.518;2022-11-15T09:25:30;2.30;;;1.45;;
45806;SDS011;31507;51.494;7.518;2022-11-15T09:27:57;3.97;;;1.38;;
45806;SDS011;31507;51.494;7.518;2022-11-15T09:30:24;2.97;;;1.30;;
45806;SDS011;31507;51.494;7.518;2022-11-15T09:32:50;3.97;;;1.30;;
45806;SDS011;31507;51.494;7.518;2022-11-15T09:35:16;1.55;;;1.17;;
45806;SDS011;31507;51.494;7.518;2022-11-15T09:37:42;2.13;;;1.20;;
45806;SDS011;31507;51.494;7.518;2022-11-15T09:40:11;5.05;;;1.15;;
45806;SDS011;31507;51.494;7.518;2022-11-15T09:45:31;6.45;;;1.00;;
45806;SDS011;31507;51.494;7.518;2022-11-15T09:50:49;1.33;;;1.00;;
45806;SDS011;31507;51.494;7.518;2022-11-15T09:53:24;2.15;;;1.02;;
45806;SDS011;31507;51.494;7.518;2022-11-15T09:56:08;3.35;;;1.08;;
45806;SDS011;31507;51.494;7.518;2022-11-15T10:04:29;6.80;;;1.10;;
45806;SDS011;31507;51.494;7.518;2022-11-15T10:07:02;3.05;;;1.05;;
45806;SDS011;31507;51.494;7.518;2022-11-15T10:12:09;2.13;;;1.20;;
45806;SDS011;31507;51.494;7.518;2022-11-15T10:14:39;1.70;;;0.93;;
45806;SDS011;31507;51.494;7.518;2022-11-15T10:17:15;4.57;;;1.13;;
45806;SDS011;31507;51.494;7.518;2022-11-15T10:19:56;4.55;;;1.08;;
45806;SDS011;31507;51.494;7.518;2022-11-15T10:22:50;1.30;;;1.08;;
45806;SDS011;31507;51.494;7.518;2022-11-15T10:27:58;2.72;;;0.73;;
45806;SDS011;31507;51.494;7.518;2022-11-15T10:30:49;3.88;;;1.02;;
45806;SDS011;31507;51.494;7.518;2022-11-15T10:33:22;1.23;;;1.13;;
45806;SDS011;31507;51.494;7.518;2022-11-15T10:35:49;3.15;;;1.00;;
45806;SDS011;31507;51.494;7.518;2022-11-15T10:46:32;1.20;;;0.82;;
45806;SDS011;31507;51.494;7.518;2022-11-15T10:49:12;1.08;;;0.80;;
45806;SDS011;31507;51.494;7.518;2022-11-15T10:51:58;2.92;;;0.90;;
45806;SDS011;31507;51.494;7.518;2022-11-15T10:54:41;1.83;;;0.82;;
45806;SDS011;31507;51.494;7.518;2022-11-15T10:57:26;3.03;;;1.00;;
45806;SDS011;31507;51.494;7.518;2022-11-15T10:59:59;2.20;;;1.10;;
45806;SDS011;31507;51.494;7.518;2022-11-15T11:02:30;3.05;;;0.90;;
45806;SDS011;31507;51.494;7.518;2022-11-15T11:08:01;12.40;;;1.40;;
45806;SDS011;31507;51.494;7.518;2022-11-15T11:10:30;2.20;;;1.08;;
45806;SDS011;31507;51.494;7.518;2022-11-15T11:13:04;2.47;;;1.05;;
45806;SDS011;31507;51.494;7.518;2022-11-15T11:15:46;5.07;;;1.23;;
45806;SDS011;31507;51.494;7.518;2022-11-15T11:18:36;4.18;;;0.88;;
45806;SDS011;31507;51.494;7.518;2022-11-15T11:27:22;1.58;;;0.90;;
45806;SDS011;31507;51.494;7.518;2022-11-15T11:35:50;5.25;;;1.15;;
45806;SDS011;31507;51.494;7.518;2022-11-15T11:38:34;1.02;;;0.85;;
45806;SDS011;31507;51.494;7.518;2022-11-15T11:41:19;3.40;;;0.70;;
45806;SDS011;31507;51.494;7.518;2022-11-15T11:43:59;2.22;;;0.80;;
45806;SDS011;31507;51.494;7.518;2022-11-15T11:52:10;2.65;;;0.73;;
45806;SDS011;31507;51.494;7.518;2022-11-15T11:57:51;1.42;;;0.70;;
45806;SDS011;31507;51.494;7.518;2022-11-15T12:00:28;0.90;;;0.70;;
45806;SDS011;31507;51.494;7.518;2022-11-15T12:03:08;3.00;;;0.80;;
45806;SDS011;31507;51.494;7.518;2022-11-15T12:08:25;2.05;;;0.63;;
45806;SDS011;31507;51.494;7.518;2022-11-15T12:13:42;4.63;;;0.80;;
45806;SDS011;31507;51.494;7.518;2022-11-15T12:16:28;4.40;;;0.70;;
45806;SDS011;31507;51.494;7.518;2022-11-15T12:18:56;3.50;;;0.80;;
45806;SDS011;31507;51.494;7.518;2022-11-15T12:21:35;1.55;;;0.73;;
45806;SDS011;31507;51.494;7.518;2022-11-15T12:26:47;3.60;;;1.02;;
45806;SDS011;31507;51.494;7.518;2022-11-15T12:31:54;1.65;;;0.90;;
45806;SDS011;31507;51.494;7.518;2022-11-15T12:36:53;1.38;;;0.80;;
45806;SDS011;31507;51.494;7.518;2022-11-15T12:39:20;10.48;;;1.00;;
45806;SDS011;31507;51.494;7.518;2022-11-15T12:47:24;2.08;;;0.80;;
45806;SDS011;31507;51.494;7.518;2022-11-15T12:49:51;1.65;;;0.68;;
45806;SDS011;31507;51.494;7.518;2022-11-15T12:52:16;0.60;;;0.60;;
45806;SDS011;31507;51.494;7.518;2022-11-15T12:59:58;2.72;;;0.98;;
45806;SDS011;31507;51.494;7.518;2022-11-15T13:02:30;6.88;;;1.20;;
45806;SDS011;31507;51.494;7.518;2022-11-15T13:33:14;4.75;;;1.17;;
45806;SDS011;31507;51.494;7.518;2022-11-15T13:35:46;4.85;;;1.00;;
45806;SDS011;31507;51.494;7.518;2022-11-15T13:38:30;3.72;;;0.85;;
45806;SDS011;31507;51.494;7.518;2022-11-15T13:40:58;3.85;;;0.93;;
45806;SDS011;31507;51.494;7.518;2022-11-15T13:46:06;3.22;;;1.10;;
45806;SDS011;31507;51.494;7.518;2022-11-15T13:48:42;1.40;;;0.63;;
45806;SDS011;31507;51.494;7.518;2022-11-15T13:51:30;2.92;;;1.10;;
45806;SDS011;31507;51.494;7.518;2022-11-15T13:56:33;7.47;;;1.50;;
45806;SDS011;31507;51.494;7.518;2022-11-15T13:59:01;1.42;;;1.00;;
45806;SDS011;31507;51.494;7.518;2022-11-15T14:01:34;5.25;;;1.60;;
45806;SDS011;31507;51.494;7.518;2022-11-15T14:04:00;3.10;;;1.10;;
45806;SDS011;31507;51.494;7.518;2022-11-15T14:06:28;3.53;;;1.38;;
45806;SDS011;31507;51.494;7.518;2022-11-15T14:11:30;2.47;;;1.00;;
45806;SDS011;31507;51.494;7.518;2022-11-15T14:14:14;4.32;;;1.05;;
45806;SDS011;31507;51.494;7.518;2022-11-15T14:16:41;6.63;;;1.00;;
45806;SDS011;31507;51.494;7.518;2022-11-15T14:19:54;2.47;;;1.23;;
45806;SDS011;31507;51.494;7.518;2022-11-15T14:27:37;3.58;;;1.08;;
45806;SDS011;31507;51.494;7.518;2022-11-15T14:30:12;3.75;;;1.27;;
45806;SDS011;31507;51.494;7.518;2022-11-15T14:35:11;5.45;;;1.33;;
45806;SDS011;31507;51.494;7.518;2022-11-15T14:37:41;1.38;;;1.15;;
45806;SDS011;31507;51.494;7.518;2022-11-15T14:40:06;4.03;;;1.33;;
45806;SDS011;31507;51.494;7.518;2022-11-15T14:42:36;2.50;;;1.20;;
45806;SDS011;31507;51.494;7.518;2022-11-15T14:45:02;2.40;;;1.05;;
45806;SDS011;31507;51.494;7.518;2022-11-15T14:47:34;2.70;;;1.40;;
45806;SDS011;31507;51.494;7.518;2022-11-15T14:50:00;8.50;;;1.38;;
45806;SDS011;31507;51.494;7.518;2022-11-15T14:52:27;5.55;;;1.17;;
45806;SDS011;31507;51.494;7.518;2022-11-15T14:54:55;4.13;;;1.40;;
45806;SDS011;31507;51.494;7.518;2022-11-15T14:57:22;2.10;;;1.02;;
45806;SDS011;31507;51.494;7.518;2022-11-15T14:59:49;3.72;;;0.90;;
45806;SDS011;31507;51.494;7.518;2022-11-15T15:02:16;6.93;;;1.27;;
45806;SDS011;31507;51.494;7.518;2022-11-15T15:04:46;2.00;;;0.90;;
45806;SDS011;31507;51.494;7.518;2022-11-15T15:07:12;5.28;;;1.30;;
45806;SDS011;31507;51.494;7.518;2022-11-15T15:09:38;3.10;;;1.17;;
45806;SDS011;31507;51.494;7.518;2022-11-15T15:12:05;6.10;;;1.55;;
45806;SDS011;31507;51.494;7.518;2022-11-15T15:14:38;3.90;;;1.50;;
45806;SDS011;31507;51.494;7.518;2022-11-15T15:17:04;2.40;;;1.42;;
45806;SDS011;31507;51.494;7.518;2022-11-15T15:19:29;5.68;;;1.60;;
45806;SDS011;31507;51.494;7.518;2022-11-15T15:21:55;3.13;;;1.48;;
45806;SDS011;31507;51.494;7.518;2022-11-15T15:24:20;4.55;;;1.45;;
45806;SDS011;31507;51.494;7.518;2022-11-15T15:26:46;4.03;;;1.30;;
45806;SDS011;31507;51.494;7.518;2022-11-15T15:29:12;3.40;;;1.25;;
45806;SDS011;31507;51.494;7.518;2022-11-15T15:31:37;3.08;;;1.50;;
45806;SDS011;31507;51.494;7.518;2022-11-15T15:34:03;4.28;;;1.55;;
45806;SDS011;31507;51.494;7.518;2022-11-15T15:36:29;4.25;;;1.30;;
45806;SDS011;31507;51.494;7.518;2022-11-15T15:38:54;8.15;;;1.60;;
45806;SDS011;31507;51.494;7.518;2022-11-15T15:41:20;4.38;;;1.42;;
45806;SDS011;31507;51.494;7.518;2022-11-15T15:43:46;4.00;;;1.30;;
45806;SDS011;31507;51.494;7.518;2022-11-15T15:46:16;3.03;;;1.38;;
45806;SDS011;31507;51.494;7.518;2022-11-15T15:48:43;2.65;;;1.10;;
45806;SDS011;31507;51.494;7.518;2022-11-15T15:51:09;1.33;;;1.08;;
45806;SDS011;31507;51.494;7.518;2022-11-15T15:53:34;4.30;;;1.55;;
45806;SDS011;31507;51.494;7.518;2022-11-15T15:56:00;3.35;;;1.17;;
45806;SDS011;31507;51.494;7.518;2022-11-15T15:58:26;4.03;;;1.40;;
45806;SDS011;31507;51.494;7.518;2022-11-15T16:00:52;2.30;;;1.27;;
45806;SDS011;31507;51.494;7.518;2022-11-15T16:03:18;2.72;;;1.40;;
45806;SDS011;31507;51.494;7.518;2022-11-15T16:05:43;4.70;;;1.52;;
45806;SDS011;31507;51.494;7.518;2022-11-15T16:08:18;7.05;;;1.55;;
45806;SDS011;31507;51.494;7.518;2022-11-15T16:10:45;3.22;;;1.55;;
45806;SDS011;31507;51.494;7.518;2022-11-15T16:13:11;5.57;;;1.55;;
45806;SDS011;31507;51.494;7.518;2022-11-15T16:15:37;4.50;;;1.65;;
45806;SDS011;31507;51.494;7.518;2022-11-15T16:18:03;2.65;;;1.33;;
45806;SDS011;31507;51.494;7.518;2022-11-15T16:23:03;3.03;;;1.60;;
45806;SDS011;31507;51.494;7.518;2022-11-15T16:25:30;2.20;;;1.48;;
45806;SDS011;31507;51.494;7.518;2022-11-15T16:27:59;6.47;;;1.30;;
45806;SDS011;31507;51.494;7.518;2022-11-15T16:30:25;1.90;;;1.20;;
45806;SDS011;31507;51.494;7.518;2022-11-15T16:32:51;1.27;;;1.10;;
45806;SDS011;31507;51.494;7.518;2022-11-15T16:35:18;2.65;;;1.27;;
45806;SDS011;31507;51.494;7.518;2022-11-15T16:37:44;4.20;;;1.20;;
45806;SDS011;31507;51.494;7.518;2022-11-15T16:40:19;2.90;;;1.50;;
45806;SDS011;31507;51.494;7.518;2022-11-15T16:42:49;2.85;;;1.63;;
45806;SDS011;31507;51.494;7.518;2022-11-15T16:45:15;2.28;;;1.35;;
45806;SDS011;31507;51.494;7.518;2022-11-15T16:47:41;3.78;;;1.67;;
45806;SDS011;31507;51.494;7.518;2022-11-15T16:50:12;4.40;;;1.75;;
45806;SDS011;31507;51.494;7.518;2022-11-15T16:52:53;3.28;;;1.73;;
45806;SDS011;31507;51.494;7.518;2022-11-15T16:55:25;3.78;;;1.92;;
45806;SDS011;31507;51.494;7.518;2022-11-15T16:57:52;3.90;;;1.73;;
45806;SDS011;31507;51.494;7.518;2022-11-15T17:00:19;2.72;;;1.55;;
45806;SDS011;31507;51.494;7.518;2022-11-15T17:02:46;2.97;;;1.75;;
45806;SDS011;31507;51.494;7.518;2022-11-15T17:05:14;2.25;;;1.30;;
45806;SDS011;31507;51.494;7.518;2022-11-15T17:07:41;3.13;;;1.20;;
45806;SDS011;31507;51.494;7.518;2022-11-15T17:10:08;1.63;;;1.15;;
45806;SDS011;31507;51.494;7.518;2022-11-15T17:12:35;2.03;;;1.30;;
45806;SDS011;31507;51.494;7.518;2022-11-15T17:15:02;4.95;;;1.40;;
45806;SDS011;31507;51.494;7.518;2022-11-15T17:17:28;1.75;;;1.10;;
45806;SDS011;31507;51.494;7.518;2022-11-15T17:19:55;5.15;;;1.33;;
45806;SDS011;31507;51.494;7.518;2022-11-15T17:22:21;2.33;;;1.48;;
45806;SDS011;31507;51.494;7.518;2022-11-15T17:24:47;7.47;;;1.42;;